Time;durP1;ratioP1;P1;durP2;ratioP2;P2;SDS_P1;SDS_P2;PMS_P1;PMS_P2;Temp;Humidity;BMP_temperature;BMP_pressure;BME280_temperature;BME280_humidity;BME280_pressure;Samples;Min_cycle;Max_cycle;Signal;HPM_P1;HPM_P2
2022/06/17 00:00:25;;;;;;;10.90;4.00;;;;;;;22.46;59.01;98918.66;5112193;28;20079;-95
2022/06/17 00:02:50;;;;;;;8.05;4.22;;;;;;;22.26;58.95;98903.88;5112584;28;20048;-94
2022/06/17 00:05:16;;;;;;;6.50;4.50;;;;;;;22.34;58.90;98929.41;5112760;28;20077;-94
2022/06/17 00:07:44;;;;;;;6.75;4.00;;;;;;;22.44;57.90;98932.31;5108610;28;20050;-95
2022/06/17 00:10:18;;;;;;;6.05;4.03;;;;;;;22.34;58.59;98921.28;5111916;28;20051;-93
2022/06/17 00:12:43;;;;;;;6.28;3.95;;;;;;;22.32;58.13;98938.63;5111867;28;20036;-93
2022/06/17 00:15:13;;;;;;;6.65;4.18;;;;;;;22.26;57.67;98920.97;5113742;28;20059;-94
2022/06/17 00:17:39;;;;;;;6.07;4.22;;;;;;;22.46;57.50;98937.63;5116186;28;20440;-94
2022/06/17 00:20:06;;;;;;;8.30;4.30;;;;;;;22.41;57.84;98945.22;5112697;28;20483;-94
2022/06/17 00:22:31;;;;;;;6.90;4.50;;;;;;;22.40;57.62;98932.66;5112243;28;20048;-94
2022/06/17 00:24:59;;;;;;;7.72;4.43;;;;;;;22.25;57.47;98930.09;5112179;28;20039;-94
2022/06/17 00:27:24;;;;;;;8.50;4.50;;;;;;;22.21;57.51;98922.28;5111814;28;20047;-93
2022/06/17 00:29:50;;;;;;;9.07;4.70;;;;;;;22.21;57.61;98933.09;5111993;28;20042;-93
2022/06/17 00:32:16;;;;;;;6.60;4.70;;;;;;;22.23;57.31;98945.59;5112595;28;20059;-95
2022/06/17 00:34:42;;;;;;;7.43;4.60;;;;;;;22.14;58.62;98948.91;5116778;28;20131;-94
2022/06/17 00:37:12;;;;;;;7.60;4.55;;;;;;;22.09;58.61;98948.38;5112334;28;20024;-95
2022/06/17 00:39:38;;;;;;;12.32;5.97;;;;;;;22.04;59.03;98935.19;5122414;28;20071;-94
2022/06/17 00:42:10;;;;;;;6.40;4.80;;;;;;;21.93;60.37;98921.53;5112868;28;20085;-95
2022/06/17 00:44:42;;;;;;;8.85;4.47;;;;;;;21.87;59.89;98930.09;5118947;28;20088;-94
2022/06/17 00:47:18;;;;;;;7.20;4.47;;;;;;;21.79;61.26;98927.06;5113309;28;20040;-94
2022/06/17 00:49:49;;;;;;;7.22;4.22;;;;;;;21.76;62.58;98938.97;5111658;28;20048;-93
2022/06/17 00:52:21;;;;;;;8.27;4.80;;;;;;;21.64;62.26;98942.53;5109796;28;20451;-95
2022/06/17 00:54:52;;;;;;;6.60;4.72;;;;;;;21.46;62.04;98929.31;5109235;28;20511;-94
2022/06/17 00:57:23;;;;;;;5.82;4.35;;;;;;;21.32;62.54;98916.72;5111381;28;20036;-96
2022/06/17 01:00:12;;;;;;;8.20;4.40;;;;;;;21.30;63.06;98917.81;5111694;28;20047;-94
2022/06/17 01:02:42;;;;;;;5.72;4.60;;;;;;;21.25;63.34;98910.00;5094047;28;20546;-93
2022/06/17 01:05:08;;;;;;;6.55;4.47;;;;;;;21.21;63.82;98903.06;5099221;28;20069;-95
2022/06/17 01:07:40;;;;;;;6.65;4.80;;;;;;;21.29;65.03;98921.47;5097907;28;20036;-94
2022/06/17 01:10:09;;;;;;;8.05;4.50;;;;;;;21.20;64.94;98914.00;5097065;28;20040;-94
2022/06/17 01:12:43;;;;;;;9.07;4.93;;;;;;;21.18;65.05;98914.09;5093553;28;20104;-93
2022/06/17 01:15:14;;;;;;;7.38;4.95;;;;;;;21.06;65.16;98904.13;5096154;28;20047;-95
2022/06/17 01:17:40;;;;;;;6.60;4.38;;;;;;;21.06;65.24;98906.84;5096499;28;20048;-93
2022/06/17 01:20:10;;;;;;;9.18;5.20;;;;;;;20.99;65.83;98911.78;5096629;28;20381;-93
2022/06/17 01:22:40;;;;;;;6.55;4.60;;;;;;;20.68;65.87;98884.09;5096332;28;20039;-93
2022/06/17 01:25:13;;;;;;;7.95;4.32;;;;;;;20.69;65.69;98901.19;5096658;28;20074;-92
2022/06/17 01:27:41;;;;;;;7.38;4.70;;;;;;;20.60;67.87;98907.19;5095195;28;20139;-93
2022/06/17 01:30:10;;;;;;;6.72;4.55;;;;;;;20.40;68.46;98892.25;5096732;28;20505;-93
2022/06/17 01:32:41;;;;;;;8.10;4.82;;;;;;;20.27;69.14;98890.34;5097293;28;20044;-94
2022/06/17 01:35:08;;;;;;;7.25;4.50;;;;;;;20.29;69.62;98901.91;5097212;28;20449;-92
2022/06/17 01:37:34;;;;;;;5.82;4.30;;;;;;;20.27;69.38;98903.00;5097752;28;20059;-93
2022/06/17 01:40:02;;;;;;;6.65;4.40;;;;;;;20.23;69.42;98901.44;5097541;28;20032;-95
2022/06/17 01:42:29;;;;;;;8.07;4.63;;;;;;;20.24;68.84;98895.97;5096784;28;20046;-93
2022/06/17 01:44:55;;;;;;;6.20;4.45;;;;;;;20.24;68.96;98904.06;5096588;28;20044;-93
2022/06/17 01:47:26;;;;;;;7.15;4.70;;;;;;;20.02;69.43;98879.44;5098391;28;20392;-93
2022/06/17 01:49:55;;;;;;;8.18;4.85;;;;;;;20.05;69.14;98880.06;5098309;28;20055;-94
2022/06/17 01:52:27;;;;;;;6.22;4.50;;;;;;;20.02;69.54;98868.63;5096487;28;20048;-95
2022/06/17 01:55:00;;;;;;;8.30;5.10;;;;;;;20.00;70.25;98884.06;5097345;28;20085;-93
2022/06/17 01:57:32;;;;;;;11.13;5.00;;;;;;;20.05;71.20;98900.81;5098028;28;20457;-94
2022/06/17 02:00:05;;;;;;;6.72;5.15;;;;;;;19.83;71.97;98872.47;5103907;28;20066;-93
2022/06/17 02:02:32;;;;;;;9.00;5.20;;;;;;;19.99;71.58;98903.91;5094887;28;20055;-94
2022/06/17 02:05:05;;;;;;;6.55;5.00;;;;;;;19.86;71.85;98884.91;5094690;28;20102;-94
2022/06/17 02:07:36;;;;;;;6.53;4.65;;;;;;;19.92;71.27;98889.06;5093993;28;20051;-93
2022/06/17 02:10:03;;;;;;;8.85;5.15;;;;;;;19.81;72.76;98885.22;5096102;28;20086;-92
2022/06/17 02:12:30;;;;;;;7.10;5.28;;;;;;;19.64;74.60;98888.06;5095179;28;20575;-95
2022/06/17 02:14:56;;;;;;;9.00;5.57;;;;;;;19.50;74.33;98889.78;5093132;28;20135;-94
2022/06/17 02:17:27;;;;;;;7.90;5.38;;;;;;;19.67;73.64;98918.44;5096464;28;20071;-93
2022/06/17 02:19:54;;;;;;;9.65;4.85;;;;;;;19.57;72.74;98884.88;5096643;28;20445;-93
2022/06/17 02:22:25;;;;;;;9.98;5.38;;;;;;;19.71;72.01;98905.63;5095941;28;20055;-94
2022/06/17 02:24:53;;;;;;;7.20;5.03;;;;;;;19.81;71.66;98903.25;5095551;28;20079;-94
2022/06/17 02:27:21;;;;;;;7.50;5.00;;;;;;;19.73;72.15;98884.81;5096016;28;20050;-93
2022/06/17 02:29:49;;;;;;;10.05;5.68;;;;;;;19.84;71.19;98903.03;5095003;28;20401;-92
2022/06/17 02:32:16;;;;;;;6.50;5.03;;;;;;;19.79;71.77;98905.16;5095514;28;20509;-94
2022/06/17 02:34:49;;;;;;;6.82;4.68;;;;;;;19.66;72.49;98884.31;5096127;28;20517;-92
2022/06/17 02:37:17;;;;;;;9.55;5.43;;;;;;;19.74;73.58;98918.94;5091154;28;20193;-93
2022/06/17 02:39:45;;;;;;;8.20;5.20;;;;;;;19.55;73.11;98897.59;5094205;28;20393;-93
2022/06/17 02:42:17;;;;;;;9.50;5.13;;;;;;;19.61;72.42;98896.34;5095080;28;20485;-94
2022/06/17 02:44:44;;;;;;;8.82;5.05;;;;;;;19.48;72.43;98891.72;5095598;28;20085;-93
2022/06/17 02:47:11;;;;;;;7.95;5.82;;;;;;;19.42;73.23;98881.31;5095969;28;20047;-96
2022/06/17 02:49:39;;;;;;;7.78;5.28;;;;;;;19.41;73.65;98903.84;5096107;28;20046;-94
2022/06/17 02:52:12;;;;;;;9.85;5.63;;;;;;;19.47;73.89;98908.88;5097390;28;20051;-95
2022/06/17 02:54:41;;;;;;;8.38;5.45;;;;;;;19.53;73.93;98909.44;5096576;28;20047;-96
2022/06/17 02:57:07;;;;;;;;;;;;;;;19.56;73.63;98920.03;5096744;28;20389;-92
2022/06/17 02:59:38;;;;;;;8.18;5.22;;;;;;;19.44;73.37;98906.34;5095814;28;19942;-91
2022/06/17 03:02:24;;;;;;;7.10;5.28;;;;;;;19.41;72.36;98893.06;5095493;28;20032;-92
2022/06/17 03:04:53;;;;;;;7.72;5.43;;;;;;;19.36;73.66;98902.38;5094943;28;20047;-93
2022/06/17 03:07:21;;;;;;;6.93;5.35;;;;;;;19.45;73.38;98913.50;5096212;28;20501;-93
2022/06/17 03:09:47;;;;;;;9.10;5.47;;;;;;;19.14;73.73;98868.63;5095958;28;20040;-92
2022/06/17 03:12:17;;;;;;;10.32;5.78;;;;;;;19.11;74.35;98867.97;5095200;28;20044;-93
2022/06/17 03:14:46;;;;;;;11.25;5.82;;;;;;;19.27;74.33;98901.13;5094780;28;20097;-91
2022/06/17 03:17:17;;;;;;;7.75;6.05;;;;;;;19.19;74.35;98893.50;5094173;28;20044;-91
2022/06/17 03:19:46;;;;;;;8.65;5.53;;;;;;;19.22;74.03;98906.78;5095332;28;20115;-93
2022/06/17 03:22:13;;;;;;;10.35;5.70;;;;;;;19.17;73.84;98895.44;5096023;28;20052;-92
2022/06/17 03:24:43;;;;;;;9.43;5.50;;;;;;;19.04;74.53;98887.22;5094868;28;20562;-93
2022/06/17 03:27:14;;;;;;;7.72;5.47;;;;;;;18.91;74.88;98890.69;5094845;28;20040;-92
2022/06/17 03:29:43;;;;;;;7.00;5.43;;;;;;;18.93;75.34;98908.50;5097913;28;20127;-93
2022/06/17 03:32:14;;;;;;;7.35;5.40;;;;;;;18.85;75.60;98900.03;5096538;28;20540;-92
2022/06/17 03:34:44;;;;;;;10.00;5.75;;;;;;;18.98;75.97;98933.38;5096228;28;20119;-94
2022/06/17 03:37:19;;;;;;;8.65;5.90;;;;;;;18.88;76.50;98918.69;5095969;28;20450;-94
2022/06/17 03:39:48;;;;;;;10.10;6.13;;;;;;;18.87;77.18;98925.06;5095629;28;20032;-94
2022/06/17 03:42:19;;;;;;;12.40;5.80;;;;;;;18.79;77.42;98919.25;5094354;28;20493;-94
2022/06/17 03:44:55;;;;;;;10.52;6.35;;;;;;;18.87;77.30;98928.63;5095831;28;20559;-94
2022/06/17 03:47:25;;;;;;;8.82;6.80;;;;;;;19.05;76.87;98937.44;5094915;28;20052;-94
2022/06/17 03:49:54;;;;;;;9.13;6.53;;;;;;;19.23;77.05;98946.25;5094693;28;20097;-93
2022/06/17 03:52:28;;;;;;;9.55;6.82;;;;;;;19.20;77.07;98937.50;5095676;28;20555;-93
2022/06/17 03:54:54;;;;;;;10.07;6.70;;;;;;;19.13;78.73;98912.75;5095473;28;20044;-93
2022/06/17 03:57:20;;;;;;;8.75;6.90;;;;;;;19.19;78.58;98915.06;5095981;28;20560;-95
2022/06/17 03:59:50;;;;;;;9.70;7.20;;;;;;;19.14;80.01;98898.28;5097024;28;20056;-94
2022/06/17 04:02:18;;;;;;;9.52;7.80;;;;;;;19.16;80.53;98909.00;5098905;28;20075;-93
2022/06/17 04:04:48;;;;;;;12.43;7.47;;;;;;;19.39;81.38;98942.66;5092354;28;20435;-93
2022/06/17 04:07:14;;;;;;;11.98;7.22;;;;;;;19.33;81.26;98922.31;5095155;28;20036;-93
2022/06/17 04:09:43;;;;;;;10.57;7.32;;;;;;;19.19;81.80;98898.91;5095267;28;20040;-93
2022/06/17 04:12:22;;;;;;;10.95;7.75;;;;;;;19.38;82.15;98927.44;5091070;28;20048;-93
2022/06/17 04:14:50;;;;;;;;;;;;;;;19.46;82.63;98941.31;5093711;28;20067;-94
2022/06/17 04:17:22;;;;;;;12.73;7.22;;;;;;;19.43;82.49;98947.78;5095138;28;19955;-93
2022/06/17 04:19:54;;;;;;;9.32;7.55;;;;;;;19.19;82.51;98912.38;5091863;28;20135;-93
2022/06/17 04:22:25;;;;;;;10.18;7.70;;;;;;;19.24;82.47;98909.41;5094916;28;20139;-93
2022/06/17 04:24:56;;;;;;;11.50;7.43;;;;;;;19.43;81.67;98930.69;5095163;28;20047;-94
2022/06/17 04:27:23;;;;;;;8.93;7.03;;;;;;;19.49;81.96;98930.34;5093181;28;20072;-94
2022/06/17 04:29:54;;;;;;;10.63;7.30;;;;;;;19.37;81.90;98910.38;5095090;28;20117;-94
2022/06/17 04:32:26;;;;;;;7.75;6.43;;;;;;;19.40;81.88;98899.41;5094419;28;20132;-92
2022/06/17 04:34:52;;;;;;;7.63;6.38;;;;;;;19.50;81.48;98922.16;5095519;28;20048;-93
2022/06/17 04:37:20;;;;;;;10.15;6.78;;;;;;;19.48;81.76;98907.91;5100908;28;20055;-95
2022/06/17 04:39:49;;;;;;;9.57;6.43;;;;;;;19.57;80.97;98909.16;5098504;28;20032;-93
2022/06/17 04:42:20;;;;;;;9.57;6.88;;;;;;;19.61;81.53;98915.25;5099982;28;20059;-94
2022/06/17 04:44:46;;;;;;;9.70;6.93;;;;;;;19.76;81.73;98926.97;5099934;28;20036;-94
2022/06/17 04:47:14;;;;;;;8.10;7.30;;;;;;;19.67;81.98;98902.25;5098864;28;20519;-94
2022/06/17 04:49:44;;;;;;;12.07;7.72;;;;;;;19.85;81.24;98908.34;5097918;28;20036;-94
2022/06/17 04:52:18;;;;;;;10.48;7.38;;;;;;;;;;5091560;28;20072;-94
2022/06/17 04:54:44;;;;;;;9.68;6.90;;;;;;;21.15;76.87;98927.81;5098455;28;20507;-91
2022/06/17 04:57:12;;;;;;;13.38;6.95;;;;;;;21.63;74.01;98928.16;5097949;28;20067;-94
2022/06/17 04:59:42;;;;;;;8.37;6.00;;;;;;;22.08;71.42;98933.13;5112001;28;20035;-93
2022/06/17 05:02:13;;;;;;;8.73;6.38;;;;;;;22.40;70.87;98927.22;5098513;28;20056;-93
2022/06/17 05:04:39;;;;;;;7.65;6.20;;;;;;;22.68;66.75;98921.50;5095747;28;20040;-94
2022/06/17 05:07:05;;;;;;;8.65;6.00;;;;;;;22.60;64.99;98934.78;5098849;28;20063;-94
2022/06/17 05:09:37;;;;;;;8.20;6.03;;;;;;;22.69;64.37;98949.50;5097459;28;20411;-93
2022/06/17 05:12:07;;;;;;;8.43;6.80;;;;;;;22.99;63.55;98938.19;5098225;28;20068;-94
2022/06/17 05:14:41;;;;;;;9.32;6.88;;;;;;;23.26;63.32;98926.25;5097121;28;20040;-92
2022/06/17 05:17:08;;;;;;;9.52;6.88;;;;;;;23.37;61.72;98926.28;5098018;28;20035;-94
2022/06/17 05:19:33;;;;;;;11.20;7.20;;;;;;;23.41;62.60;98935.91;5097504;28;20503;-93
2022/06/17 05:22:01;;;;;;;10.23;7.70;;;;;;;23.30;62.81;98906.88;5096883;28;20036;-92
2022/06/17 05:24:28;;;;;;;11.65;7.22;;;;;;;23.66;62.25;98926.72;5097472;28;20404;-92
2022/06/17 05:26:54;;;;;;;9.65;7.50;;;;;;;23.82;61.46;98918.25;5094723;28;20040;-94
2022/06/17 05:29:20;;;;;;;10.20;7.03;;;;;;;24.02;61.75;98913.09;5099821;28;20070;-94
2022/06/17 05:31:49;;;;;;;8.40;6.95;;;;;;;24.34;59.48;98907.78;5100040;28;20071;-94
2022/06/17 05:34:16;;;;;;;8.93;6.70;;;;;;;24.61;58.18;98918.25;5101255;28;20100;-93
2022/06/17 05:36:42;;;;;;;11.18;6.32;;;;;;;24.87;57.20;98928.81;5100609;28;20037;-93
2022/06/17 05:39:08;;;;;;;12.40;6.43;;;;;;;24.86;57.74;98895.31;5102123;28;20371;-94
2022/06/17 05:41:34;;;;;;;10.07;6.40;;;;;;;25.14;57.57;98926.50;5103736;28;20127;-94
2022/06/17 05:44:00;;;;;;;11.90;7.35;;;;;;;25.08;56.66;98899.81;5102947;28;20048;-93
2022/06/17 05:46:26;;;;;;;16.65;7.60;;;;;;;25.17;57.29;98912.63;5103549;28;20047;-93
2022/06/17 05:48:53;;;;;;;13.48;7.30;;;;;;;25.31;56.13;98907.88;5102271;28;20153;-94
2022/06/17 05:51:19;;;;;;;12.40;7.70;;;;;;;25.33;56.75;98923.09;5103522;28;20055;-93
2022/06/17 05:53:45;;;;;;;12.35;7.40;;;;;;;25.32;56.58;98909.63;5103788;28;20036;-93
2022/06/17 05:56:11;;;;;;;12.18;7.50;;;;;;;25.55;56.32;98937.59;5103697;28;20048;-94
2022/06/17 05:58:37;;;;;;;9.35;7.30;;;;;;;25.54;56.62;98914.94;5105196;28;20040;-94
2022/06/17 06:01:03;;;;;;;13.57;7.72;;;;;;;25.68;56.51;98935.53;5104177;28;20075;-93
2022/06/17 06:03:29;;;;;;;12.82;8.13;;;;;;;25.69;56.44;98939.13;5103053;28;20056;-94
2022/06/17 06:05:57;;;;;;;12.45;7.70;;;;;;;25.48;56.63;98926.38;5103805;28;20064;-93
2022/06/17 06:08:23;;;;;;;8.68;7.68;;;;;;;25.51;55.87;98923.38;5101716;28;20050;-93
2022/06/17 06:10:49;;;;;;;9.63;7.85;;;;;;;25.57;56.28;98928.31;5102100;28;20104;-93
2022/06/17 06:13:17;;;;;;;10.25;7.22;;;;;;;25.90;56.42;98960.94;5104341;28;20062;-94
2022/06/17 06:15:45;;;;;;;12.07;8.05;;;;;;;25.96;54.36;98941.34;5104417;28;20127;-93
2022/06/17 06:18:13;;;;;;;12.90;7.00;;;;;;;25.95;54.76;98925.97;5104538;28;20565;-93
2022/06/17 06:20:39;;;;;;;12.27;6.95;;;;;;;26.14;54.41;98941.56;5102459;28;20129;-93
2022/06/17 06:23:07;;;;;;;9.27;7.15;;;;;;;26.18;53.88;98948.47;5107061;28;20040;-95
2022/06/17 06:25:33;;;;;;;10.50;7.22;;;;;;;25.95;53.75;98939.59;5104483;28;20035;-95
2022/06/17 06:28:06;;;;;;;10.40;7.07;;;;;;;26.22;55.33;98966.28;5096661;28;20098;-95
2022/06/17 06:30:32;;;;;;;13.13;7.35;;;;;;;26.48;54.59;98977.59;5099262;28;20048;-96
2022/06/17 06:33:01;;;;;;;11.57;7.45;;;;;;;26.49;55.94;98962.94;5099970;28;20553;-94
2022/06/17 06:35:29;;;;;;;12.75;7.78;;;;;;;26.53;56.11;98952.63;5102592;28;20512;-93
2022/06/17 06:37:55;;;;;;;15.95;7.43;;;;;;;26.72;54.88;98974.53;5103009;28;20389;-93
2022/06/17 06:40:22;;;;;;;11.55;6.78;;;;;;;26.69;52.37;98938.47;5100895;28;20099;-92
2022/06/17 06:42:50;;;;;;;9.02;6.43;;;;;;;26.77;52.93;98950.41;5098885;28;20157;-92
2022/06/17 06:45:18;;;;;;;10.57;6.72;;;;;;;27.09;52.52;98979.34;5096629;28;20048;-93
2022/06/17 06:47:45;;;;;;;12.95;6.50;;;;;;;26.91;52.22;98954.59;5095217;28;20052;-93
2022/06/17 06:50:16;;;;;;;10.80;6.07;;;;;;;27.02;51.43;98969.97;5099631;28;20048;-94
2022/06/17 06:52:42;;;;;;;11.82;6.63;;;;;;;27.10;52.60;98947.44;5099785;28;20040;-93
2022/06/17 06:55:08;;;;;;;9.75;6.75;;;;;;;27.14;52.09;98947.03;5099578;28;20119;-95
2022/06/17 06:57:41;;;;;;;11.27;6.80;;;;;;;27.33;50.95;98954.41;5100590;28;20043;-93
2022/06/17 07:00:08;;;;;;;11.13;6.57;;;;;;;27.44;51.10;98967.03;5101433;28;20032;-94
2022/06/17 07:02:41;;;;;;;9.48;6.03;;;;;;;27.58;49.50;98963.00;5102233;28;20092;-94
2022/06/17 07:05:13;;;;;;;8.95;6.28;;;;;;;27.72;49.95;98956.25;5099216;28;20172;-93
2022/06/17 07:08:25;;;;;;;13.15;6.60;;;;;;;27.64;49.27;98951.50;5093932;28;20051;-95
2022/06/17 07:10:55;;;;;;;7.93;6.10;;;;;;;27.58;50.43;98955.66;5101372;28;20123;-93
2022/06/17 07:13:47;;;;;;;9.15;6.07;;;;;;;27.61;48.16;98965.47;5106929;28;20079;-93
2022/06/17 07:16:39;;;;;;;10.60;6.45;;;;;;;27.58;49.34;98976.66;5100452;28;20127;-93
2022/06/17 07:19:17;;;;;;;6.82;6.10;;;;;;;27.63;49.24;98972.50;5100097;28;20036;-92
2022/06/17 07:25:44;;;;;;;7.13;6.38;;;;;;;27.65;49.41;98947.75;5001071;28;20053;-92
2022/06/17 07:28:54;;;;;;;10.77;6.35;;;;;;;27.76;48.28;98952.19;5017496;28;20053;-94
2022/06/17 07:31:50;;;;;;;8.48;6.28;;;;;;;27.64;48.02;98952.34;5010797;28;20046;-93
2022/06/17 07:34:36;;;;;;;10.15;5.93;;;;;;;27.88;47.93;98970.19;5082960;28;20062;-94
2022/06/17 07:40:16;;;;;;;9.17;6.13;;;;;;;27.40;49.81;98941.03;5103968;27;1508911;-92
2022/06/17 07:42:43;;;;;;;9.30;6.00;;;;;;;27.32;48.27;98949.06;5157021;27;20282;-94
2022/06/17 07:45:23;;;;;;;12.65;6.22;;;;;;;26.89;48.96;98943.00;5158906;27;20042;-92
2022/06/17 07:47:59;;;;;;;9.38;5.80;;;;;;;27.22;50.40;98947.22;5153620;27;20038;-92
2022/06/17 07:50:37;;;;;;;10.45;6.53;;;;;;;27.73;48.79;98930.63;5156171;27;20043;-94
2022/06/17 07:53:14;;;;;;;7.28;5.68;;;;;;;28.38;46.29;98942.53;5156010;27;20045;-92
2022/06/17 07:55:45;;;;;;;9.45;5.90;;;;;;;28.80;45.83;98935.72;5153838;27;20037;-94
2022/06/17 07:58:31;;;;;;;9.13;6.07;;;;;;;29.27;45.05;98963.78;5156079;27;20038;-94
2022/06/17 08:01:02;;;;;;;8.40;5.93;;;;;;;29.23;44.04;98948.72;5151759;27;20054;-92
2022/06/17 08:03:28;;;;;;;14.20;6.25;;;;;;;28.77;46.28;98955.19;5155927;27;20527;-92
2022/06/17 08:05:57;;;;;;;;;;;;;;;28.74;46.07;98964.56;5158056;27;20081;-92
2022/06/17 08:08:40;;;;;;;11.43;6.57;;;;;;;28.79;45.28;98944.94;5156465;27;19986;-94
2022/06/17 08:11:25;;;;;;;8.60;5.93;;;;;;;28.76;45.78;98924.22;5154448;27;20039;-95
2022/06/17 08:13:56;;;;;;;9.87;6.53;;;;;;;28.57;45.65;98940.75;5154786;27;20045;-92
2022/06/17 08:16:27;;;;;;;9.15;5.68;;;;;;;28.83;45.28;98941.75;5152810;27;20511;-92
2022/06/17 08:18:57;;;;;;;9.65;5.90;;;;;;;28.91;45.65;98929.16;5155761;27;20133;-92
2022/06/17 08:21:26;;;;;;;10.85;6.03;;;;;;;29.18;44.84;98940.09;5156326;27;20035;-92
2022/06/17 08:24:04;;;;;;;7.43;5.90;;;;;;;29.33;44.15;98928.59;5156315;27;20039;-93
2022/06/17 08:26:44;;;;;;;9.32;5.95;;;;;;;29.47;44.04;98945.34;5157398;27;20092;-94
2022/06/17 08:29:22;;;;;;;9.02;5.50;;;;;;;29.57;44.35;98922.47;5153045;27;20034;-93
2022/06/17 08:32:45;;;;;;;10.35;6.28;;;;;;;29.87;43.56;98923.91;5158796;27;20035;-93
2022/06/17 08:35:19;;;;;;;7.70;6.07;;;;;;;30.25;42.92;98936.31;5143364;27;20109;-92
2022/06/17 08:37:58;;;;;;;9.05;6.18;;;;;;;29.92;42.48;98923.44;5154265;27;20399;-94
2022/06/17 08:40:39;;;;;;;8.43;6.13;;;;;;;29.88;42.78;98914.66;5153172;27;20182;-94
2022/06/17 08:43:41;;;;;;;8.73;5.88;;;;;;;30.04;43.56;98916.66;5154022;27;20125;-93
2022/06/17 08:46:43;;;;;;;7.55;5.60;;;;;;;30.03;40.10;98923.16;5108929;27;20070;-92
2022/06/17 08:49:45;;;;;;;10.88;6.28;;;;;;;29.91;40.72;98908.88;5152814;27;20484;-93
2022/06/17 08:52:33;;;;;;;8.57;5.53;;;;;;;30.10;41.57;98902.25;5141418;27;20492;-92
2022/06/17 08:55:11;;;;;;;9.38;5.95;;;;;;;29.88;40.17;98917.41;5138009;27;20043;-91
2022/06/17 08:57:57;;;;;;;9.02;5.80;;;;;;;30.15;39.01;98931.97;5139663;27;20039;-93
2022/06/17 09:03:36;;;;;;;6.20;5.60;;;;;;;30.67;38.35;98918.19;5122852;27;20035;-92
2022/06/17 09:06:15;;;;;;;9.60;5.80;;;;;;;30.78;39.54;98901.38;5135720;27;20495;-92
2022/06/17 09:09:18;;;;;;;6.25;5.30;;;;;;;30.99;39.30;98906.47;5137210;27;20027;-95
2022/06/17 09:12:16;;;;;;;6.50;5.82;;;;;;;31.14;37.58;98894.78;5134647;27;20047;-92
2022/06/17 09:14:52;;;;;;;8.07;5.60;;;;;;;31.23;38.20;98927.59;5133514;27;20064;-90
2022/06/17 09:17:43;;;;;;;9.55;6.00;;;;;;;30.88;39.92;98904.00;5139561;27;20043;-94
2022/06/17 09:20:30;;;;;;;7.28;6.57;;;;;;;30.05;40.24;98894.53;5136832;27;20451;-92
2022/06/17 09:23:27;;;;;;;9.40;5.50;;;;;;;30.54;38.95;98915.03;5137263;27;20050;-92
2022/06/17 09:29:11;;;;;;;7.97;6.13;;;;;;;30.20;39.01;98918.63;5119803;27;20104;-93
2022/06/17 09:31:46;;;;;;;8.38;6.22;;;;;;;30.40;38.14;98884.44;5136929;27;20035;-92
2022/06/17 09:34:30;;;;;;;;;;;;;;;31.01;39.78;98920.88;5133614;27;20047;-92
2022/06/17 09:37:30;;;;;;;;;;;;;;;;;;;;;
2022/06/17 09:43:29;;;;;;;7.18;5.97;;;;;;;31.42;37.63;98878.81;5053223;28;20053;-94
2022/06/17 09:46:16;;;;;;;10.27;7.00;;;;;;;31.60;38.05;98897.91;5053140;28;20044;-92
2022/06/17 09:49:11;;;;;;;9.77;7.38;;;;;;;31.62;38.19;98877.47;5058928;28;20041;-94
2022/06/17 09:52:23;;;;;;;11.13;7.28;;;;;;;31.95;37.35;98904.91;5035212;28;20135;-94
2022/06/17 09:55:28;;;;;;;7.43;6.63;;;;;;;31.66;38.06;98905.47;5043852;28;20046;-92
2022/06/17 09:58:21;;;;;;;8.57;6.90;;;;;;;31.55;38.09;98868.19;5044297;28;20142;-93
2022/06/17 10:01:50;;;;;;;12.88;7.28;;;;;;;31.71;38.90;98864.56;5046568;28;20056;-93
2022/06/17 10:04:57;;;;;;;10.40;6.43;;;;;;;31.95;38.64;98866.41;5049737;28;20261;-94
2022/06/17 10:08:23;;;;;;;8.07;7.28;;;;;;;31.83;37.74;98863.16;5032747;28;20036;-94
2022/06/17 10:14:25;;;;;;;15.25;8.48;;;;;;;31.59;39.51;98872.31;5042652;28;20047;-92
2022/06/17 10:20:29;;;;;;;9.68;7.43;;;;;;;32.08;39.59;98888.75;5139934;27;20370;-93
2022/06/17 10:23:25;;;;;;;9.68;7.22;;;;;;;32.28;38.81;98885.59;5105539;28;20047;-92
2022/06/17 10:26:18;;;;;;;8.93;7.20;;;;;;;32.29;39.13;98848.75;5108448;28;20046;-92
2022/06/17 10:29:22;;;;;;;8.52;7.28;;;;;;;31.68;39.39;98853.91;5101284;28;20512;-93
2022/06/17 10:32:02;;;;;;;9.98;7.60;;;;;;;31.85;39.53;98871.25;5091345;28;20048;-94
2022/06/17 10:35:13;;;;;;;8.55;7.63;;;;;;;31.48;39.12;98848.78;5111109;28;20048;-92
2022/06/17 10:38:14;;;;;;;9.98;7.47;;;;;;;31.19;40.92;98879.50;5080579;28;20044;-89
2022/06/17 10:40:51;;;;;;;9.50;7.95;;;;;;;31.55;40.74;98854.44;5107330;28;20048;-94
2022/06/17 10:43:50;;;;;;;9.55;7.80;;;;;;;31.20;41.13;98845.50;5110490;28;20111;-91
2022/06/17 10:46:38;;;;;;;;;;;;;;;;;;;;;
2022/06/17 10:49:52;;;;;;;11.93;8.25;;;;;;;31.64;40.45;98836.94;5087707;28;20023;-91
2022/06/17 10:52:22;;;;;;;10.25;8.23;;;;;;;31.91;40.30;98837.53;5082267;28;20127;-94
2022/06/17 10:54:56;;;;;;;11.10;8.50;;;;;;;31.82;39.62;98830.34;5086352;28;20123;-94
2022/06/17 10:57:56;;;;;;;11.73;8.50;;;;;;;32.13;38.45;98825.78;5089390;28;20052;-95
2022/06/17 11:03:45;;;;;;;11.38;9.65;;;;;;;32.36;36.53;98840.66;5071572;28;20543;-91
2022/06/17 11:06:16;;;;;;;13.18;10.13;;;;;;;32.63;37.33;98859.47;5087706;28;20064;-94
2022/06/17 11:08:54;;;;;;;12.25;10.00;;;;;;;32.86;36.70;98826.44;5081914;28;20040;-92
2022/06/17 11:12:13;;;;;;;10.98;9.88;;;;;;;32.43;36.89;98826.00;5084985;28;20048;-93
2022/06/17 11:15:52;;;;;;;12.05;10.75;;;;;;;32.08;37.06;98817.22;5051766;28;20047;-92
2022/06/17 11:18:32;;;;;;;13.43;10.27;;;;;;;32.11;37.37;98819.59;5070634;28;20475;-91
2022/06/17 11:21:21;;;;;;;10.82;9.73;;;;;;;32.25;37.36;98808.88;5084817;28;20044;-92
2022/06/17 11:23:58;;;;;;;12.38;10.43;;;;;;;32.46;37.06;98803.59;5087501;28;20468;-90
2022/06/17 11:26:29;;;;;;;11.38;10.05;;;;;;;33.09;35.63;98806.31;5096568;28;20040;-92
2022/06/17 11:29:00;;;;;;;12.57;9.73;;;;;;;33.33;36.27;98758.38;5109391;28;20040;-91
2022/06/17 11:31:49;;;;;;;12.50;10.30;;;;;;;32.95;36.42;98785.94;5095964;28;20040;-94
2022/06/17 11:34:48;;;;;;;12.88;10.27;;;;;;;32.06;37.72;98789.03;5093198;28;20048;-91
2022/06/17 11:37:39;;;;;;;12.75;10.52;;;;;;;31.60;39.51;98798.94;5095718;28;20082;-90
2022/06/17 11:44:18;;;;;;;11.35;9.93;;;;;;;29.85;42.08;98770.53;5060216;28;20037;-93
2022/06/17 11:50:58;;;;;;;14.55;10.75;;;;;;;29.44;43.87;98813.28;5011581;28;20045;-93
2022/06/17 11:53:46;;;;;;;13.48;10.70;;;;;;;29.28;42.66;98771.06;5048662;28;20040;-92
2022/06/17 11:56:32;;;;;;;13.25;10.23;;;;;;;29.21;44.63;98770.00;5050132;28;20087;-93
2022/06/17 11:59:25;;;;;;;21.63;11.50;;;;;;;29.15;46.77;98770.63;5048462;28;20033;-90
2022/06/17 12:02:27;;;;;;;12.48;10.45;;;;;;;29.01;45.65;98762.94;5044737;28;20041;-93
2022/06/17 12:05:23;;;;;;;12.32;11.02;;;;;;;28.87;46.71;98762.50;5054322;28;20449;-93
2022/06/17 12:08:33;;;;;;;12.32;10.40;;;;;;;28.84;46.37;98776.53;5046797;28;20041;-92
2022/06/17 12:19:18;;;;;;;13.05;10.95;;;;;;;28.83;47.38;98798.56;4899422;29;20049;-93
2022/06/17 12:22:32;;;;;;;12.02;10.68;;;;;;;28.87;47.95;98832.81;4811036;29;20105;-94
2022/06/17 12:29:54;;;;;;;8.70;7.20;;;;;;;26.55;47.46;98785.09;4822663;29;20124;-93
2022/06/17 12:33:12;;;;;;;10.30;7.22;;;;;;;26.63;46.10;98778.97;4847216;29;20057;-92
2022/06/17 12:36:40;;;;;;;;;;;;;;;;;;;;;
2022/06/17 12:39:29;;;;;;;7.75;6.00;;;;;;;26.35;45.45;98814.22;4889240;29;20048;-93
2022/06/17 12:43:15;;;;;;;12.05;6.85;;;;;;;25.94;49.80;98832.47;4858125;29;20048;-92
2022/06/17 12:46:16;;;;;;;13.57;9.05;;;;;;;24.64;64.61;98844.59;4893890;29;20045;-92
2022/06/17 13:12:48;;;;;;;7.47;6.07;;;;;;;23.62;61.42;98816.66;6204846;23;20076;-96
2022/06/17 13:23:30;;;;;;;;;;;;;;;;;;;;;
2022/06/17 13:26:44;;;;;;;6.53;5.60;;;;;;;27.30;52.36;98831.78;6078495;23;20027;-91
2022/06/17 13:42:25;;;;;;;9.15;6.93;;;;;;;26.44;55.51;98817.97;5862919;24;20090;-92
2022/06/17 13:44:05;;;;;;;12.55;7.10;;;;;;;26.27;56.56;98835.88;5799785;24;20054;-93
2022/06/17 13:46:53;;;;;;;10.20;7.20;;;;;;;25.94;58.26;98828.88;5805519;24;20015;-93
2022/06/17 13:49:52;;;;;;;;;;;;;;;25.90;59.11;98857.41;5789207;24;20017;-93
2022/06/17 14:18:38;;;;;;;15.98;9.55;;;;;;;26.27;68.48;98805.88;5579218;22;15076470;-95